RYR992R LIPZ-LICR
Flight info
| Callsign | RYR992R |
|---|---|
| Flight time | 1h 20m |
| Altitude | 37000 |
| Route | CHI6L/04R CHI DCT ARDAM DCT BELOV DCT AMLON DCT SOR Q58 FOSQA |
| Aircraft | B738/M-SDE2E3FGHIRWXY/LB1 |
Departure
| Time | 2026-05-06 16:27 |
|---|---|
| Airport | Venice Marco Polo Airport (LIPZ) |
Arrival
| Time | 2026-05-06 17:47 |
|---|---|
| Airport | Reggio Calabria Airport (LICR) |
| Time | Latitude | Longitude | Altitude | Speed | Heading |
|---|---|---|---|---|---|
| 2026-05-06 15:58 | 45.50750 | 12.34007 | 8 ft | 0 kts | 224° |
| 2026-05-06 16:10 | 45.50760 | 12.34020 | 8 ft | 2 kts | 221° |
| 2026-05-06 16:10 | 45.50767 | 12.34029 | 8 ft | 1 kts | 224° |
| 2026-05-06 16:11 | 45.50779 | 12.34041 | 8 ft | 2 kts | 194° |
| 2026-05-06 16:11 | 45.50794 | 12.34041 | 8 ft | 2 kts | 154° |
| 2026-05-06 16:11 | 45.50802 | 12.34032 | 8 ft | 2 kts | 128° |
| 2026-05-06 16:11 | 45.50807 | 12.34023 | 8 ft | 0 kts | 130° |
| 2026-05-06 16:12 | 45.50808 | 12.34022 | 8 ft | 0 kts | 130° |
| 2026-05-06 16:14 | 45.50800 | 12.34037 | 8 ft | 4 kts | 122° |
| 2026-05-06 16:14 | 45.50785 | 12.34092 | 8 ft | 9 kts | 110° |
| 2026-05-06 16:15 | 45.50745 | 12.34172 | 8 ft | 9 kts | 130° |
| 2026-05-06 16:15 | 45.50700 | 12.34247 | 8 ft | 10 kts | 131° |
| 2026-05-06 16:15 | 45.50648 | 12.34322 | 8 ft | 10 kts | 147° |
| 2026-05-06 16:15 | 45.50571 | 12.34340 | 8 ft | 11 kts | 179° |
| 2026-05-06 16:16 | 45.50487 | 12.34344 | 8 ft | 12 kts | 177° |
| 2026-05-06 16:16 | 45.50399 | 12.34349 | 8 ft | 13 kts | 176° |
| 2026-05-06 16:16 | 45.50305 | 12.34356 | 8 ft | 13 kts | 177° |
| 2026-05-06 16:16 | 45.50212 | 12.34360 | 10 ft | 12 kts | 178° |
| 2026-05-06 16:17 | 45.50119 | 12.34328 | 11 ft | 15 kts | 215° |
| 2026-05-06 16:17 | 45.50024 | 12.34210 | 11 ft | 19 kts | 221° |
| 2026-05-06 16:17 | 45.49919 | 12.34076 | 10 ft | 21 kts | 221° |
| 2026-05-06 16:17 | 45.49799 | 12.33923 | 8 ft | 24 kts | 222° |
| 2026-05-06 16:18 | 45.49700 | 12.33796 | 8 ft | 15 kts | 221° |
| 2026-05-06 16:18 | 45.49617 | 12.33689 | 8 ft | 16 kts | 221° |
| 2026-05-06 16:18 | 45.49560 | 12.33615 | 8 ft | 8 kts | 222° |
| 2026-05-06 16:18 | 45.49542 | 12.33595 | 7 ft | 0 kts | 203° |
| 2026-05-06 16:21 | 45.49541 | 12.33594 | 7 ft | 1 kts | 201° |
| 2026-05-06 16:21 | 45.49536 | 12.33593 | 7 ft | 3 kts | 187° |
| 2026-05-06 16:21 | 45.49509 | 12.33609 | 7 ft | 0 kts | 139° |
| 2026-05-06 16:25 | 45.49488 | 12.33639 | 8 ft | 7 kts | 132° |
| 2026-05-06 16:25 | 45.49445 | 12.33708 | 8 ft | 9 kts | 131° |
| 2026-05-06 16:26 | 45.49435 | 12.33798 | 8 ft | 10 kts | 54° |
| 2026-05-06 16:26 | 45.49453 | 12.33825 | 8 ft | 0 kts | 42° |
| 2026-05-06 16:26 | 45.49456 | 12.33828 | 8 ft | 3 kts | 42° |
| 2026-05-06 16:26 | 45.49638 | 12.34063 | 8 ft | 70 kts | 42° |
| 2026-05-06 16:27 | 45.50163 | 12.34734 | 8 ft | 129 kts | 42° |
| 2026-05-06 16:27 | 45.50939 | 12.35725 | 116 ft | 164 kts | 42° |
| 2026-05-06 16:27 | 45.51763 | 12.36854 | 695 ft | 166 kts | 46° |
| 2026-05-06 16:27 | 45.52593 | 12.38057 | 1200 ft | 175 kts | 46° |
| 2026-05-06 16:28 | 45.53402 | 12.39407 | 1609 ft | 188 kts | 62° |
| 2026-05-06 16:28 | 45.53705 | 12.41267 | 1938 ft | 199 kts | 97° |
| 2026-05-06 16:28 | 45.53463 | 12.43202 | 2480 ft | 202 kts | 103° |
| 2026-05-06 16:28 | 45.53194 | 12.45216 | 2901 ft | 216 kts | 102° |
| 2026-05-06 16:29 | 45.52969 | 12.47288 | 3376 ft | 226 kts | 101° |
| 2026-05-06 16:29 | 45.52731 | 12.49509 | 4009 ft | 228 kts | 103° |
| 2026-05-06 16:29 | 45.52213 | 12.51586 | 4580 ft | 228 kts | 127° |
| 2026-05-06 16:29 | 45.51043 | 12.53060 | 5147 ft | 226 kts | 158° |
| 2026-05-06 16:30 | 45.49525 | 12.53659 | 5527 ft | 235 kts | 178° |
| 2026-05-06 16:30 | 45.48425 | 12.53642 | 5807 ft | 242 kts | 187° |
| 2026-05-06 16:30 | 45.46137 | 12.53112 | 6342 ft | 259 kts | 192° |
| 2026-05-06 16:30 | 45.44349 | 12.52634 | 6982 ft | 264 kts | 192° |
| 2026-05-06 16:31 | 45.42561 | 12.52181 | 7654 ft | 267 kts | 191° |
| 2026-05-06 16:31 | 45.40753 | 12.51742 | 8337 ft | 270 kts | 191° |
| 2026-05-06 16:31 | 45.38901 | 12.51304 | 9107 ft | 270 kts | 191° |
| 2026-05-06 16:31 | 45.37048 | 12.50867 | 9807 ft | 274 kts | 191° |
| 2026-05-06 16:32 | 45.35176 | 12.50563 | 10389 ft | 283 kts | 185° |
| 2026-05-06 16:32 | 45.33158 | 12.50544 | 10844 ft | 297 kts | 181° |
| 2026-05-06 16:32 | 45.31067 | 12.50876 | 11228 ft | 315 kts | 171° |
| 2026-05-06 16:32 | 45.28901 | 12.51654 | 11790 ft | 325 kts | 167° |
| 2026-05-06 16:33 | 45.26745 | 12.52579 | 12470 ft | 331 kts | 166° |
| 2026-05-06 16:33 | 45.24542 | 12.53528 | 12834 ft | 333 kts | 167° |
| 2026-05-06 16:33 | 45.22331 | 12.54441 | 12875 ft | 332 kts | 167° |
| 2026-05-06 16:34 | 45.17863 | 12.56180 | 13229 ft | 340 kts | 168° |
| 2026-05-06 16:34 | 45.15629 | 12.57029 | 14278 ft | 334 kts | 168° |
| 2026-05-06 16:34 | 45.13392 | 12.57877 | 14994 ft | 338 kts | 168° |
| 2026-05-06 16:34 | 45.11150 | 12.58725 | 15703 ft | 342 kts | 168° |
| 2026-05-06 16:35 | 45.08845 | 12.59596 | 16382 ft | 347 kts | 168° |
| 2026-05-06 16:35 | 45.06534 | 12.60469 | 17073 ft | 350 kts | 169° |
| 2026-05-06 16:35 | 45.04174 | 12.61361 | 17732 ft | 354 kts | 169° |
| 2026-05-06 16:35 | 45.01809 | 12.62255 | 18352 ft | 359 kts | 169° |
| 2026-05-06 16:36 | 44.99397 | 12.63167 | 19020 ft | 362 kts | 169° |
| 2026-05-06 16:36 | 44.96936 | 12.64097 | 19676 ft | 365 kts | 169° |
| 2026-05-06 16:36 | 44.94498 | 12.65017 | 20309 ft | 368 kts | 170° |
| 2026-05-06 16:36 | 44.92026 | 12.65948 | 20936 ft | 370 kts | 170° |
| 2026-05-06 16:37 | 44.89520 | 12.66891 | 21501 ft | 374 kts | 170° |
| 2026-05-06 16:37 | 44.87020 | 12.67830 | 22117 ft | 376 kts | 170° |
| 2026-05-06 16:37 | 44.84498 | 12.68777 | 22708 ft | 378 kts | 170° |
| 2026-05-06 16:37 | 44.81958 | 12.69729 | 23250 ft | 382 kts | 170° |
| 2026-05-06 16:38 | 44.79379 | 12.70695 | 23827 ft | 384 kts | 170° |
| 2026-05-06 16:38 | 44.76785 | 12.71666 | 24325 ft | 387 kts | 171° |
| 2026-05-06 16:38 | 44.74194 | 12.72638 | 24856 ft | 390 kts | 171° |
| 2026-05-06 16:38 | 44.71560 | 12.73624 | 25324 ft | 393 kts | 171° |
| 2026-05-06 16:39 | 44.68914 | 12.74615 | 25798 ft | 396 kts | 171° |
| 2026-05-06 16:39 | 44.66261 | 12.75606 | 26265 ft | 398 kts | 171° |
| 2026-05-06 16:39 | 44.63583 | 12.76604 | 26736 ft | 400 kts | 171° |
| 2026-05-06 16:39 | 44.60899 | 12.77603 | 27138 ft | 404 kts | 171° |
| 2026-05-06 16:40 | 44.58186 | 12.78613 | 27555 ft | 407 kts | 171° |
| 2026-05-06 16:40 | 44.55454 | 12.79628 | 27946 ft | 411 kts | 171° |
| 2026-05-06 16:40 | 44.52707 | 12.80649 | 28371 ft | 413 kts | 172° |
| 2026-05-06 16:40 | 44.49923 | 12.81682 | 28769 ft | 416 kts | 172° |
| 2026-05-06 16:41 | 44.47171 | 12.82704 | 29143 ft | 419 kts | 172° |
| 2026-05-06 16:41 | 44.44333 | 12.83754 | 29545 ft | 421 kts | 172° |
| 2026-05-06 16:41 | 44.41514 | 12.84800 | 29936 ft | 423 kts | 172° |
| 2026-05-06 16:41 | 44.38690 | 12.85843 | 30249 ft | 427 kts | 172° |
| 2026-05-06 16:42 | 44.35807 | 12.86909 | 30695 ft | 427 kts | 172° |
| 2026-05-06 16:42 | 44.32971 | 12.87966 | 31321 ft | 423 kts | 171° |
| 2026-05-06 16:42 | 44.30170 | 12.89071 | 31897 ft | 421 kts | 171° |
| 2026-05-06 16:42 | 44.27400 | 12.90215 | 32481 ft | 417 kts | 170° |
| 2026-05-06 16:43 | 44.24640 | 12.91373 | 32993 ft | 415 kts | 170° |
| 2026-05-06 16:43 | 44.21895 | 12.92529 | 33453 ft | 413 kts | 170° |
| 2026-05-06 16:43 | 44.19152 | 12.93679 | 33915 ft | 411 kts | 170° |
| 2026-05-06 16:43 | 44.16457 | 12.94804 | 34360 ft | 409 kts | 171° |
| 2026-05-06 16:44 | 44.13737 | 12.95932 | 34711 ft | 408 kts | 171° |
| 2026-05-06 16:44 | 44.11035 | 12.97047 | 34991 ft | 407 kts | 171° |
| 2026-05-06 16:44 | 44.08292 | 12.98174 | 35254 ft | 408 kts | 171° |
| 2026-05-06 16:44 | 44.05576 | 12.99288 | 35529 ft | 408 kts | 171° |
| 2026-05-06 16:45 | 44.02881 | 13.00390 | 35689 ft | 410 kts | 171° |
| 2026-05-06 16:45 | 44.00124 | 13.01517 | 36025 ft | 408 kts | 171° |
| 2026-05-06 16:45 | 43.97432 | 13.02618 | 36262 ft | 408 kts | 171° |
| 2026-05-06 16:45 | 43.94684 | 13.03737 | 36395 ft | 411 kts | 170° |
| 2026-05-06 16:46 | 43.91933 | 13.04857 | 36642 ft | 412 kts | 171° |
| 2026-05-06 16:46 | 43.89188 | 13.05975 | 36903 ft | 412 kts | 170° |
| 2026-05-06 16:46 | 43.86441 | 13.07091 | 36907 ft | 414 kts | 170° |
| 2026-05-06 16:47 | 43.80992 | 13.09313 | 36910 ft | 409 kts | 170° |
| 2026-05-06 16:47 | 43.75510 | 13.11535 | 36913 ft | 409 kts | 171° |
| 2026-05-06 16:48 | 43.70071 | 13.13738 | 36913 ft | 408 kts | 171° |
| 2026-05-06 16:48 | 43.64624 | 13.15940 | 36907 ft | 411 kts | 171° |
| 2026-05-06 16:49 | 43.59141 | 13.18150 | 36912 ft | 410 kts | 171° |
| 2026-05-06 16:49 | 43.53705 | 13.20342 | 36920 ft | 410 kts | 171° |
| 2026-05-06 16:50 | 43.48215 | 13.22546 | 36926 ft | 412 kts | 171° |
| 2026-05-06 16:50 | 43.42720 | 13.24750 | 36932 ft | 410 kts | 171° |
| 2026-05-06 16:51 | 43.37305 | 13.26922 | 36934 ft | 408 kts | 171° |
| 2026-05-06 16:51 | 43.31836 | 13.29106 | 36942 ft | 410 kts | 171° |
| 2026-05-06 16:52 | 43.26406 | 13.31268 | 36950 ft | 411 kts | 171° |
| 2026-05-06 16:52 | 43.20918 | 13.33451 | 36951 ft | 409 kts | 171° |
| 2026-05-06 16:53 | 43.15484 | 13.35611 | 36964 ft | 410 kts | 171° |
| 2026-05-06 16:53 | 43.10124 | 13.37739 | 36970 ft | 408 kts | 171° |
| 2026-05-06 16:54 | 43.04650 | 13.39901 | 36964 ft | 411 kts | 171° |
| 2026-05-06 16:54 | 42.99163 | 13.42071 | 36981 ft | 410 kts | 172° |
| 2026-05-06 16:55 | 42.93722 | 13.44219 | 36968 ft | 409 kts | 171° |
| 2026-05-06 16:55 | 42.88257 | 13.46369 | 36968 ft | 411 kts | 171° |
| 2026-05-06 16:56 | 42.83680 | 13.48166 | 36978 ft | 412 kts | 172° |
| 2026-05-06 16:56 | 42.77278 | 13.50679 | 36977 ft | 410 kts | 171° |
| 2026-05-06 16:57 | 42.71803 | 13.52823 | 36979 ft | 410 kts | 171° |
| 2026-05-06 16:57 | 42.66334 | 13.54958 | 36991 ft | 411 kts | 171° |
| 2026-05-06 16:58 | 42.60827 | 13.57100 | 36999 ft | 412 kts | 171° |
| 2026-05-06 16:58 | 42.55309 | 13.59245 | 36995 ft | 414 kts | 172° |
| 2026-05-06 16:59 | 42.49811 | 13.61380 | 37002 ft | 414 kts | 171° |
| 2026-05-06 16:59 | 42.44304 | 13.63519 | 36996 ft | 411 kts | 171° |
| 2026-05-06 17:00 | 42.38804 | 13.65651 | 37006 ft | 413 kts | 172° |
| 2026-05-06 17:00 | 42.33279 | 13.67784 | 37008 ft | 414 kts | 172° |
| 2026-05-06 17:01 | 42.27763 | 13.69910 | 37001 ft | 414 kts | 172° |
| 2026-05-06 17:01 | 42.22223 | 13.72048 | 37000 ft | 413 kts | 172° |
| 2026-05-06 17:02 | 42.16677 | 13.74178 | 37010 ft | 416 kts | 172° |
| 2026-05-06 17:02 | 42.11176 | 13.76289 | 37016 ft | 412 kts | 172° |
| 2026-05-06 17:03 | 42.05629 | 13.78416 | 37024 ft | 413 kts | 172° |
| 2026-05-06 17:03 | 42.00079 | 13.80536 | 37018 ft | 418 kts | 172° |
| 2026-05-06 17:04 | 41.94527 | 13.82655 | 37023 ft | 412 kts | 172° |
| 2026-05-06 17:04 | 41.89014 | 13.84757 | 37029 ft | 416 kts | 172° |
| 2026-05-06 17:05 | 41.83443 | 13.86863 | 37025 ft | 418 kts | 172° |
| 2026-05-06 17:05 | 41.77847 | 13.88988 | 37029 ft | 416 kts | 172° |
| 2026-05-06 17:06 | 41.72324 | 13.91086 | 37030 ft | 414 kts | 172° |
| 2026-05-06 17:06 | 41.66749 | 13.93195 | 37022 ft | 416 kts | 172° |
| 2026-05-06 17:07 | 41.61218 | 13.95285 | 37019 ft | 416 kts | 172° |
| 2026-05-06 17:07 | 41.55627 | 13.97390 | 37012 ft | 415 kts | 172° |
| 2026-05-06 17:08 | 41.50102 | 13.99470 | 37014 ft | 416 kts | 172° |
| 2026-05-06 17:08 | 41.44508 | 14.01571 | 37015 ft | 416 kts | 172° |
| 2026-05-06 17:09 | 41.38963 | 14.03649 | 37011 ft | 415 kts | 172° |
| 2026-05-06 17:09 | 41.33395 | 14.05734 | 37005 ft | 418 kts | 172° |
| 2026-05-06 17:10 | 41.27823 | 14.07812 | 37006 ft | 416 kts | 171° |
| 2026-05-06 17:10 | 41.22282 | 14.09878 | 37012 ft | 415 kts | 172° |
| 2026-05-06 17:11 | 41.16685 | 14.11957 | 37005 ft | 418 kts | 171° |
| 2026-05-06 17:11 | 41.11116 | 14.14025 | 37018 ft | 416 kts | 171° |
| 2026-05-06 17:12 | 41.05509 | 14.16103 | 37009 ft | 419 kts | 172° |
| 2026-05-06 17:12 | 40.99939 | 14.18166 | 37012 ft | 416 kts | 171° |
| 2026-05-06 17:13 | 40.94395 | 14.20219 | 37009 ft | 415 kts | 171° |
| 2026-05-06 17:13 | 40.88793 | 14.22282 | 37007 ft | 420 kts | 171° |
| 2026-05-06 17:14 | 40.83187 | 14.24345 | 37007 ft | 417 kts | 171° |
| 2026-05-06 17:14 | 40.77612 | 14.26394 | 37006 ft | 418 kts | 171° |
| 2026-05-06 17:15 | 40.72020 | 14.28446 | 37007 ft | 418 kts | 171° |
| 2026-05-06 17:15 | 40.66444 | 14.30484 | 37005 ft | 419 kts | 171° |
| 2026-05-06 17:16 | 40.60793 | 14.32547 | 37005 ft | 421 kts | 171° |
| 2026-05-06 17:16 | 40.55207 | 14.34640 | 37003 ft | 423 kts | 169° |
| 2026-05-06 17:17 | 40.49618 | 14.36937 | 37003 ft | 421 kts | 168° |
| 2026-05-06 17:17 | 40.44025 | 14.39285 | 37002 ft | 423 kts | 168° |
| 2026-05-06 17:18 | 40.38415 | 14.41619 | 37000 ft | 424 kts | 168° |
| 2026-05-06 17:18 | 40.32922 | 14.43881 | 37003 ft | 423 kts | 168° |
| 2026-05-06 17:19 | 40.27340 | 14.46169 | 36997 ft | 424 kts | 168° |
| 2026-05-06 17:19 | 40.21809 | 14.48428 | 36998 ft | 424 kts | 168° |
| 2026-05-06 17:20 | 40.16280 | 14.50681 | 36996 ft | 425 kts | 168° |
| 2026-05-06 17:20 | 40.10742 | 14.52935 | 36999 ft | 426 kts | 168° |
| 2026-05-06 17:21 | 40.05155 | 14.55201 | 36997 ft | 426 kts | 168° |
| 2026-05-06 17:21 | 40.02346 | 14.56341 | 36993 ft | 426 kts | 168° |
| 2026-05-06 17:22 | 39.93984 | 14.59731 | 36996 ft | 425 kts | 168° |
| 2026-05-06 17:22 | 39.88400 | 14.61988 | 36994 ft | 428 kts | 168° |
| 2026-05-06 17:23 | 39.82831 | 14.64242 | 36481 ft | 422 kts | 168° |
| 2026-05-06 17:23 | 39.80126 | 14.65336 | 36001 ft | 419 kts | 169° |
| 2026-05-06 17:23 | 39.77383 | 14.66444 | 35563 ft | 414 kts | 169° |
| 2026-05-06 17:23 | 39.74656 | 14.67543 | 35083 ft | 411 kts | 168° |
| 2026-05-06 17:24 | 39.71945 | 14.68633 | 34588 ft | 408 kts | 169° |
| 2026-05-06 17:24 | 39.69241 | 14.69718 | 34067 ft | 406 kts | 168° |
| 2026-05-06 17:24 | 39.66599 | 14.70778 | 33576 ft | 402 kts | 168° |
| 2026-05-06 17:24 | 39.63945 | 14.71843 | 33089 ft | 399 kts | 169° |
| 2026-05-06 17:25 | 39.61290 | 14.72906 | 32597 ft | 396 kts | 169° |
| 2026-05-06 17:25 | 39.58682 | 14.73951 | 32109 ft | 393 kts | 169° |
| 2026-05-06 17:25 | 39.56132 | 14.74969 | 31642 ft | 389 kts | 169° |
| 2026-05-06 17:25 | 39.53540 | 14.76005 | 31155 ft | 386 kts | 169° |
| 2026-05-06 17:26 | 39.50977 | 14.77028 | 30675 ft | 384 kts | 169° |
| 2026-05-06 17:26 | 39.48457 | 14.78034 | 30214 ft | 381 kts | 169° |
| 2026-05-06 17:26 | 39.45954 | 14.79032 | 29748 ft | 378 kts | 169° |
| 2026-05-06 17:26 | 39.43436 | 14.80034 | 29281 ft | 376 kts | 169° |
| 2026-05-06 17:27 | 39.40982 | 14.81010 | 28818 ft | 373 kts | 169° |
| 2026-05-06 17:27 | 39.38514 | 14.81991 | 28353 ft | 371 kts | 168° |
| 2026-05-06 17:27 | 39.36066 | 14.82965 | 27890 ft | 369 kts | 169° |
| 2026-05-06 17:27 | 39.33621 | 14.83936 | 27427 ft | 366 kts | 168° |
| 2026-05-06 17:28 | 39.31184 | 14.84903 | 26968 ft | 364 kts | 168° |
| 2026-05-06 17:28 | 39.28785 | 14.85856 | 26515 ft | 361 kts | 168° |
| 2026-05-06 17:28 | 39.26386 | 14.86807 | 26065 ft | 359 kts | 168° |
| 2026-05-06 17:28 | 39.24023 | 14.87744 | 25617 ft | 356 kts | 168° |
| 2026-05-06 17:29 | 39.21700 | 14.88664 | 25175 ft | 354 kts | 168° |
| 2026-05-06 17:29 | 39.19377 | 14.89583 | 24732 ft | 351 kts | 168° |
| 2026-05-06 17:29 | 39.17073 | 14.90494 | 24294 ft | 348 kts | 168° |
| 2026-05-06 17:29 | 39.14768 | 14.91404 | 23860 ft | 344 kts | 168° |
| 2026-05-06 17:30 | 39.12526 | 14.92289 | 23436 ft | 341 kts | 168° |
| 2026-05-06 17:30 | 39.10273 | 14.93178 | 23013 ft | 338 kts | 168° |
| 2026-05-06 17:30 | 39.08035 | 14.94061 | 22596 ft | 335 kts | 169° |
| 2026-05-06 17:30 | 39.05832 | 14.94929 | 22171 ft | 333 kts | 168° |
| 2026-05-06 17:31 | 39.03632 | 14.95795 | 21754 ft | 330 kts | 169° |
| 2026-05-06 17:31 | 39.01456 | 14.96652 | 21342 ft | 328 kts | 169° |
| 2026-05-06 17:31 | 38.99292 | 14.97503 | 20927 ft | 325 kts | 168° |
| 2026-05-06 17:31 | 38.97126 | 14.98354 | 20512 ft | 323 kts | 169° |
| 2026-05-06 17:32 | 38.95018 | 14.99182 | 20112 ft | 320 kts | 168° |
| 2026-05-06 17:32 | 38.92883 | 15.00022 | 19707 ft | 317 kts | 169° |
| 2026-05-06 17:32 | 38.90794 | 15.00842 | 19305 ft | 314 kts | 169° |
| 2026-05-06 17:32 | 38.88731 | 15.01651 | 18909 ft | 312 kts | 169° |
| 2026-05-06 17:33 | 38.86665 | 15.02461 | 18521 ft | 309 kts | 169° |
| 2026-05-06 17:33 | 38.84636 | 15.03257 | 18134 ft | 306 kts | 169° |
| 2026-05-06 17:33 | 38.82599 | 15.04054 | 17735 ft | 304 kts | 169° |
| 2026-05-06 17:33 | 38.80601 | 15.04834 | 17358 ft | 302 kts | 169° |
| 2026-05-06 17:34 | 38.78587 | 15.05618 | 16979 ft | 307 kts | 168° |
| 2026-05-06 17:34 | 38.76555 | 15.06409 | 16590 ft | 305 kts | 168° |
| 2026-05-06 17:34 | 38.74517 | 15.07206 | 16198 ft | 302 kts | 168° |
| 2026-05-06 17:34 | 38.72532 | 15.07992 | 15815 ft | 300 kts | 166° |
| 2026-05-06 17:35 | 38.70582 | 15.08965 | 15431 ft | 300 kts | 159° |
| 2026-05-06 17:35 | 38.68803 | 15.10365 | 15056 ft | 302 kts | 149° |
| 2026-05-06 17:35 | 38.67184 | 15.12018 | 14683 ft | 301 kts | 144° |
| 2026-05-06 17:36 | 38.64053 | 15.15515 | 13924 ft | 295 kts | 144° |
| 2026-05-06 17:36 | 38.62521 | 15.17208 | 13566 ft | 292 kts | 144° |
| 2026-05-06 17:36 | 38.60958 | 15.18903 | 13200 ft | 296 kts | 144° |
| 2026-05-06 17:36 | 38.59391 | 15.20585 | 12820 ft | 296 kts | 144° |
| 2026-05-06 17:37 | 38.57815 | 15.22273 | 12437 ft | 292 kts | 144° |
| 2026-05-06 17:37 | 38.56280 | 15.23919 | 12096 ft | 289 kts | 143° |
| 2026-05-06 17:37 | 38.54746 | 15.25562 | 11731 ft | 287 kts | 143° |
| 2026-05-06 17:37 | 38.53245 | 15.27171 | 11373 ft | 284 kts | 143° |
| 2026-05-06 17:38 | 38.51731 | 15.28790 | 11027 ft | 281 kts | 143° |
| 2026-05-06 17:38 | 38.50262 | 15.30364 | 10949 ft | 272 kts | 143° |
| 2026-05-06 17:38 | 38.48821 | 15.31905 | 10545 ft | 273 kts | 143° |
| 2026-05-06 17:38 | 38.47359 | 15.33466 | 10147 ft | 273 kts | 142° |
| 2026-05-06 17:39 | 38.45916 | 15.35007 | 9757 ft | 272 kts | 142° |
| 2026-05-06 17:39 | 38.44479 | 15.36542 | 9441 ft | 270 kts | 142° |
| 2026-05-06 17:39 | 38.43508 | 15.37579 | 9158 ft | 269 kts | 142° |
| 2026-05-06 17:39 | 38.41633 | 15.39582 | 8638 ft | 260 kts | 141° |
| 2026-05-06 17:40 | 38.40272 | 15.41033 | 8206 ft | 255 kts | 141° |
| 2026-05-06 17:40 | 38.38929 | 15.42467 | 7767 ft | 252 kts | 141° |
| 2026-05-06 17:40 | 38.37587 | 15.43896 | 7325 ft | 248 kts | 141° |
| 2026-05-06 17:40 | 38.36278 | 15.45289 | 6883 ft | 246 kts | 141° |
| 2026-05-06 17:41 | 38.34965 | 15.46683 | 6438 ft | 244 kts | 141° |
| 2026-05-06 17:41 | 38.33672 | 15.48059 | 6000 ft | 244 kts | 141° |
| 2026-05-06 17:41 | 38.32388 | 15.49424 | 5569 ft | 242 kts | 141° |
| 2026-05-06 17:41 | 38.31095 | 15.50798 | 5131 ft | 240 kts | 141° |
| 2026-05-06 17:42 | 38.29820 | 15.52152 | 4703 ft | 237 kts | 140° |
| 2026-05-06 17:42 | 38.28556 | 15.53480 | 4263 ft | 234 kts | 143° |
| 2026-05-06 17:42 | 38.27198 | 15.54535 | 3824 ft | 231 kts | 157° |
| 2026-05-06 17:42 | 38.25653 | 15.55042 | 3388 ft | 227 kts | 172° |
| 2026-05-06 17:43 | 38.24116 | 15.55331 | 3120 ft | 218 kts | 169° |
| 2026-05-06 17:43 | 38.22680 | 15.55751 | 2889 ft | 206 kts | 163° |
| 2026-05-06 17:43 | 38.21790 | 15.56108 | 2731 ft | 199 kts | 160° |
| 2026-05-06 17:43 | 38.20176 | 15.56906 | 2679 ft | 172 kts | 156° |
| 2026-05-06 17:44 | 38.19085 | 15.57512 | 2476 ft | 171 kts | 155° |
| 2026-05-06 17:44 | 38.18023 | 15.58140 | 2249 ft | 167 kts | 154° |
| 2026-05-06 17:44 | 38.16978 | 15.58783 | 2021 ft | 164 kts | 153° |
| 2026-05-06 17:44 | 38.15957 | 15.59427 | 1808 ft | 162 kts | 153° |
| 2026-05-06 17:45 | 38.14947 | 15.60073 | 1601 ft | 162 kts | 153° |
| 2026-05-06 17:45 | 38.13974 | 15.60700 | 1446 ft | 159 kts | 153° |
| 2026-05-06 17:45 | 38.12995 | 15.61332 | 1173 ft | 151 kts | 153° |
| 2026-05-06 17:45 | 38.12091 | 15.61920 | 961 ft | 144 kts | 154° |
| 2026-05-06 17:46 | 38.11188 | 15.62487 | 795 ft | 147 kts | 154° |
| 2026-05-06 17:46 | 38.10278 | 15.63079 | 650 ft | 147 kts | 154° |
| 2026-05-06 17:46 | 38.09365 | 15.63687 | 488 ft | 147 kts | 153° |
| 2026-05-06 17:46 | 38.08462 | 15.64278 | 266 ft | 146 kts | 155° |
| 2026-05-06 17:47 | 38.07561 | 15.64866 | 81 ft | 140 kts | 154° |
| 2026-05-06 17:47 | 38.06925 | 15.65281 | 54 ft | 65 kts | 155° |
| 2026-05-06 17:47 | 38.06668 | 15.65450 | 53 ft | 18 kts | 152° |
| 2026-05-06 17:47 | 38.06630 | 15.65477 | 54 ft | 4 kts | 352° |
| 2026-05-06 17:48 | 38.06688 | 15.65434 | 52 ft | 19 kts | 331° |
| 2026-05-06 17:48 | 38.06823 | 15.65344 | 52 ft | 22 kts | 333° |
| 2026-05-06 17:48 | 38.06954 | 15.65263 | 55 ft | 21 kts | 334° |
| 2026-05-06 17:48 | 38.07083 | 15.65179 | 58 ft | 20 kts | 332° |
| 2026-05-06 17:49 | 38.07217 | 15.65091 | 64 ft | 19 kts | 332° |
| 2026-05-06 17:49 | 38.07284 | 15.65099 | 67 ft | 8 kts | 50° |
| 2026-05-06 17:49 | 38.07315 | 15.65169 | 70 ft | 9 kts | 64° |
| 2026-05-06 17:49 | 38.07340 | 15.65230 | 73 ft | 6 kts | 61° |
| 2026-05-06 17:50 | 38.07357 | 15.65268 | 74 ft | 2 kts | 62° |
| 2026-05-06 17:50 | 38.07357 | 15.65281 | 75 ft | 1 kts | 95° |
| 2026-05-06 17:50 | 38.07356 | 15.65288 | 75 ft | 0 kts | 106° |